sensor_id;sensor_type;location;lat;lon;timestamp;pressure;altitude;pressure_sealevel;temperature;humidity
34738;BME280;39910;47.154;27.614;2022-12-16T00:00:22;100749.16;;;2.85;100.00
34738;BME280;39910;47.154;27.614;2022-12-16T00:02:49;100758.44;;;2.66;100.00
34738;BME280;39910;47.154;27.614;2022-12-16T00:05:15;100760.81;;;3.03;100.00
34738;BME280;39910;47.154;27.614;2022-12-16T00:07:40;100766.91;;;3.03;100.00
34738;BME280;39910;47.154;27.614;2022-12-16T00:10:07;100769.16;;;2.97;100.00
34738;BME280;39910;47.154;27.614;2022-12-16T00:12:33;100771.91;;;2.73;100.00
34738;BME280;39910;47.154;27.614;2022-12-16T00:14:58;100763.31;;;3.04;100.00
34738;BME280;39910;47.154;27.614;2022-12-16T00:17:23;100775.69;;;3.25;100.00
34738;BME280;39910;47.154;27.614;2022-12-16T00:19:49;100757.81;;;3.08;100.00
34738;BME280;39910;47.154;27.614;2022-12-16T00:22:15;100764.03;;;3.18;100.00
34738;BME280;39910;47.154;27.614;2022-12-16T00:24:40;100751.41;;;3.00;100.00
34738;BME280;39910;47.154;27.614;2022-12-16T00:27:06;100747.94;;;3.00;100.00
34738;BME280;39910;47.154;27.614;2022-12-16T00:29:31;100741.75;;;3.23;100.00
34738;BME280;39910;47.154;27.614;2022-12-16T00:31:57;100757.31;;;3.36;100.00
34738;BME280;39910;47.154;27.614;2022-12-16T00:34:23;100749.97;;;2.63;100.00
34738;BME280;39910;47.154;27.614;2022-12-16T00:36:48;100756.28;;;3.16;100.00
34738;BME280;39910;47.154;27.614;2022-12-16T00:39:14;100760.22;;;2.99;100.00
34738;BME280;39910;47.154;27.614;2022-12-16T00:41:39;100773.78;;;2.93;100.00
34738;BME280;39910;47.154;27.614;2022-12-16T00:44:05;100763.06;;;3.19;100.00
34738;BME280;39910;47.154;27.614;2022-12-16T00:46:30;100758.78;;;3.07;100.00
34738;BME280;39910;47.154;27.614;2022-12-16T00:48:56;100761.00;;;3.22;100.00
34738;BME280;39910;47.154;27.614;2022-12-16T00:51:21;100764.50;;;3.12;100.00
34738;BME280;39910;47.154;27.614;2022-12-16T00:53:48;100771.25;;;3.37;100.00
34738;BME280;39910;47.154;27.614;2022-12-16T00:56:13;100773.50;;;3.84;100.00
34738;BME280;39910;47.154;27.614;2022-12-16T00:58:39;100762.53;;;3.79;100.00
34738;BME280;39910;47.154;27.614;2022-12-16T01:01:06;100757.00;;;3.62;100.00
34738;BME280;39910;47.154;27.614;2022-12-16T01:03:33;100755.16;;;3.41;100.00
34738;BME280;39910;47.154;27.614;2022-12-16T01:05:58;100757.81;;;3.08;100.00
34738;BME280;39910;47.154;27.614;2022-12-16T01:08:24;100752.22;;;3.23;100.00
34738;BME280;39910;47.154;27.614;2022-12-16T01:10:55;100745.66;;;3.07;100.00
34738;BME280;39910;47.154;27.614;2022-12-16T01:13:23;100753.72;;;3.37;100.00
34738;BME280;39910;47.154;27.614;2022-12-16T01:15:49;100760.91;;;3.67;100.00
34738;BME280;39910;47.154;27.614;2022-12-16T01:18:15;100760.13;;;3.44;100.00
34738;BME280;39910;47.154;27.614;2022-12-16T01:20:42;100753.22;;;3.54;100.00
34738;BME280;39910;47.154;27.614;2022-12-16T01:23:08;100735.75;;;3.65;100.00
34738;BME280;39910;47.154;27.614;2022-12-16T01:25:33;100736.63;;;3.86;100.00
34738;BME280;39910;47.154;27.614;2022-12-16T01:27:59;100755.84;;;3.86;100.00
34738;BME280;39910;47.154;27.614;2022-12-16T01:30:24;100744.00;;;3.92;100.00
34738;BME280;39910;47.154;27.614;2022-12-16T01:32:50;100744.25;;;4.31;100.00
34738;BME280;39910;47.154;27.614;2022-12-16T01:35:15;100747.06;;;4.39;100.00
34738;BME280;39910;47.154;27.614;2022-12-16T01:37:41;100747.44;;;4.55;100.00
34738;BME280;39910;47.154;27.614;2022-12-16T01:40:15;100743.47;;;4.61;100.00
34738;BME280;39910;47.154;27.614;2022-12-16T01:42:43;100748.38;;;4.75;100.00
34738;BME280;39910;47.154;27.614;2022-12-16T01:47:49;100751.59;;;4.79;100.00
34738;BME280;39910;47.154;27.614;2022-12-16T01:50:16;100747.78;;;5.02;100.00
34738;BME280;39910;47.154;27.614;2022-12-16T01:52:47;100754.28;;;4.98;100.00
34738;BME280;39910;47.154;27.614;2022-12-16T01:55:19;100752.53;;;5.08;100.00
34738;BME280;39910;47.154;27.614;2022-12-16T01:57:49;100758.19;;;5.13;100.00
34738;BME280;39910;47.154;27.614;2022-12-16T02:00:16;100760.59;;;5.36;100.00
34738;BME280;39910;47.154;27.614;2022-12-16T02:02:43;100752.19;;;5.42;100.00
34738;BME280;39910;47.154;27.614;2022-12-16T02:05:10;100774.63;;;5.46;100.00
34738;BME280;39910;47.154;27.614;2022-12-16T02:10:18;100760.34;;;5.48;100.00
34738;BME280;39910;47.154;27.614;2022-12-16T02:12:56;100753.97;;;5.41;100.00
34738;BME280;39910;47.154;27.614;2022-12-16T02:15:40;100748.56;;;5.43;100.00
34738;BME280;39910;47.154;27.614;2022-12-16T02:34:18;100741.69;;;5.51;100.00
34738;BME280;39910;47.154;27.614;2022-12-16T02:37:13;100740.03;;;5.60;100.00
34738;BME280;39910;47.154;27.614;2022-12-16T02:39:48;100741.41;;;5.54;100.00
34738;BME280;39910;47.154;27.614;2022-12-16T02:42:35;100745.84;;;5.64;100.00
34738;BME280;39910;47.154;27.614;2022-12-16T02:45:24;100730.19;;;5.62;100.00
34738;BME280;39910;47.154;27.614;2022-12-16T02:47:51;100739.88;;;5.71;100.00
34738;BME280;39910;47.154;27.614;2022-12-16T02:50:27;100748.91;;;5.69;100.00
34738;BME280;39910;47.154;27.614;2022-12-16T02:52:55;100758.44;;;5.70;100.00
34738;BME280;39910;47.154;27.614;2022-12-16T02:55:41;100746.69;;;5.74;100.00
34738;BME280;39910;47.154;27.614;2022-12-16T02:58:15;100748.06;;;5.68;100.00
34738;BME280;39910;47.154;27.614;2022-12-16T03:03:57;100733.94;;;5.60;100.00
34738;BME280;39910;47.154;27.614;2022-12-16T03:06:26;100734.75;;;5.70;100.00
34738;BME280;39910;47.154;27.614;2022-12-16T03:08:56;100724.09;;;5.71;100.00
34738;BME280;39910;47.154;27.614;2022-12-16T03:11:26;100725.75;;;5.82;100.00
34738;BME280;39910;47.154;27.614;2022-12-16T03:13:54;100723.38;;;5.79;100.00
34738;BME280;39910;47.154;27.614;2022-12-16T03:16:25;100728.66;;;5.79;100.00
34738;BME280;39910;47.154;27.614;2022-12-16T03:18:54;100720.75;;;5.79;100.00
34738;BME280;39910;47.154;27.614;2022-12-16T03:21:24;100713.44;;;5.73;100.00
34738;BME280;39910;47.154;27.614;2022-12-16T03:24:02;100718.13;;;5.79;100.00
34738;BME280;39910;47.154;27.614;2022-12-16T03:26:33;100718.56;;;5.74;100.00
34738;BME280;39910;47.154;27.614;2022-12-16T03:29:04;100716.47;;;5.78;100.00
34738;BME280;39910;47.154;27.614;2022-12-16T03:31:42;100711.34;;;5.86;100.00
34738;BME280;39910;47.154;27.614;2022-12-16T03:36:50;100691.66;;;5.90;100.00
34738;BME280;39910;47.154;27.614;2022-12-16T03:39:19;100702.59;;;5.86;100.00
34738;BME280;39910;47.154;27.614;2022-12-16T03:41:49;100684.91;;;5.88;100.00
34738;BME280;39910;47.154;27.614;2022-12-16T03:44:16;100677.25;;;5.85;100.00
34738;BME280;39910;47.154;27.614;2022-12-16T03:46:42;100686.00;;;5.95;100.00
34738;BME280;39910;47.154;27.614;2022-12-16T03:49:08;100697.19;;;5.87;100.00
34738;BME280;39910;47.154;27.614;2022-12-16T03:51:33;100705.25;;;5.86;100.00
34738;BME280;39910;47.154;27.614;2022-12-16T03:53:59;100709.69;;;5.95;100.00
34738;BME280;39910;47.154;27.614;2022-12-16T03:56:24;100708.31;;;5.91;100.00
34738;BME280;39910;47.154;27.614;2022-12-16T03:58:50;100703.75;;;5.93;100.00
34738;BME280;39910;47.154;27.614;2022-12-16T04:01:15;100708.44;;;5.99;100.00
34738;BME280;39910;47.154;27.614;2022-12-16T04:03:41;100694.59;;;6.06;100.00
34738;BME280;39910;47.154;27.614;2022-12-16T04:06:06;100689.59;;;5.94;100.00
34738;BME280;39910;47.154;27.614;2022-12-16T04:08:32;100698.47;;;5.83;100.00
34738;BME280;39910;47.154;27.614;2022-12-16T04:10:57;100698.88;;;5.88;100.00
34738;BME280;39910;47.154;27.614;2022-12-16T04:13:41;100685.16;;;5.94;100.00
34738;BME280;39910;47.154;27.614;2022-12-16T04:16:27;100702.09;;;5.92;100.00
34738;BME280;39910;47.154;27.614;2022-12-16T04:19:20;100711.88;;;5.80;100.00
34738;BME280;39910;47.154;27.614;2022-12-16T04:22:17;100683.06;;;5.78;100.00
34738;BME280;39910;47.154;27.614;2022-12-16T04:25:13;100687.66;;;5.86;100.00
34738;BME280;39910;47.154;27.614;2022-12-16T04:27:40;100683.34;;;5.85;100.00
34738;BME280;39910;47.154;27.614;2022-12-16T04:30:12;100695.59;;;5.96;100.00
34738;BME280;39910;47.154;27.614;2022-12-16T04:32:56;100695.84;;;5.73;100.00
34738;BME280;39910;47.154;27.614;2022-12-16T04:35:41;100674.38;;;5.68;100.00
34738;BME280;39910;47.154;27.614;2022-12-16T04:38:26;100692.22;;;5.84;100.00
34738;BME280;39910;47.154;27.614;2022-12-16T04:41:11;100682.94;;;5.70;100.00
34738;BME280;39910;47.154;27.614;2022-12-16T04:43:55;100680.72;;;5.85;100.00
34738;BME280;39910;47.154;27.614;2022-12-16T04:46:38;100666.91;;;5.73;100.00
34738;BME280;39910;47.154;27.614;2022-12-16T04:49:22;100680.06;;;5.73;100.00
34738;BME280;39910;47.154;27.614;2022-12-16T04:52:06;100669.38;;;5.75;100.00
34738;BME280;39910;47.154;27.614;2022-12-16T04:54:50;100664.09;;;5.65;100.00
34738;BME280;39910;47.154;27.614;2022-12-16T04:57:34;100666.91;;;5.73;100.00
34738;BME280;39910;47.154;27.614;2022-12-16T05:00:19;100676.59;;;5.73;100.00
34738;BME280;39910;47.154;27.614;2022-12-16T05:03:03;100670.91;;;5.68;100.00
34738;BME280;39910;47.154;27.614;2022-12-16T05:05:47;100662.44;;;5.64;100.00
34738;BME280;39910;47.154;27.614;2022-12-16T05:08:30;100665.06;;;5.64;100.00
34738;BME280;39910;47.154;27.614;2022-12-16T05:11:15;100675.31;;;5.77;100.00
34738;BME280;39910;47.154;27.614;2022-12-16T05:13:58;100679.34;;;5.81;100.00
34738;BME280;39910;47.154;27.614;2022-12-16T05:16:42;100680.44;;;5.78;100.00
34738;BME280;39910;47.154;27.614;2022-12-16T05:19:26;100687.66;;;5.76;100.00
34738;BME280;39910;47.154;27.614;2022-12-16T05:22:10;100682.53;;;5.65;100.00
34738;BME280;39910;47.154;27.614;2022-12-16T05:24:54;100706.63;;;5.70;100.00
34738;BME280;39910;47.154;27.614;2022-12-16T05:27:38;100713.44;;;5.82;100.00
34738;BME280;39910;47.154;27.614;2022-12-16T05:30:22;100704.44;;;5.75;100.00
34738;BME280;39910;47.154;27.614;2022-12-16T05:33:05;100716.22;;;5.81;100.00
34738;BME280;39910;47.154;27.614;2022-12-16T05:35:49;100734.91;;;6.07;100.00
34738;BME280;39910;47.154;27.614;2022-12-16T05:38:33;100728.84;;;5.97;100.00
34738;BME280;39910;47.154;27.614;2022-12-16T05:41:17;100724.25;;;5.99;100.00
34738;BME280;39910;47.154;27.614;2022-12-16T05:44:01;100700.94;;;5.85;100.00
34738;BME280;39910;47.154;27.614;2022-12-16T05:46:45;100703.44;;;5.86;100.00
34738;BME280;39910;47.154;27.614;2022-12-16T05:49:29;100695.84;;;5.73;100.00
34738;BME280;39910;47.154;27.614;2022-12-16T05:52:13;100693.63;;;5.69;100.00
34738;BME280;39910;47.154;27.614;2022-12-16T05:54:57;100700.25;;;5.63;100.00
34738;BME280;39910;47.154;27.614;2022-12-16T05:57:42;100709.56;;;5.67;100.00
34738;BME280;39910;47.154;27.614;2022-12-16T06:00:26;100702.34;;;5.50;100.00
34738;BME280;39910;47.154;27.614;2022-12-16T06:03:10;100711.50;;;5.75;100.00
34738;BME280;39910;47.154;27.614;2022-12-16T06:05:55;100704.44;;;5.75;100.00
34738;BME280;39910;47.154;27.614;2022-12-16T06:08:40;100694.44;;;5.69;100.00
34738;BME280;39910;47.154;27.614;2022-12-16T06:11:24;100694.16;;;5.72;100.00
34738;BME280;39910;47.154;27.614;2022-12-16T06:14:08;100701.63;;;5.58;100.00
34738;BME280;39910;47.154;27.614;2022-12-16T06:16:52;100703.31;;;5.68;100.00
34738;BME280;39910;47.154;27.614;2022-12-16T06:19:36;100720.94;;;5.97;100.00
34738;BME280;39910;47.154;27.614;2022-12-16T06:22:20;100724.66;;;5.94;100.00
34738;BME280;39910;47.154;27.614;2022-12-16T06:25:04;100726.63;;;5.92;100.00
34738;BME280;39910;47.154;27.614;2022-12-16T06:27:52;100714.53;;;5.70;100.00
34738;BME280;39910;47.154;27.614;2022-12-16T06:30:36;100704.84;;;5.71;100.00
34738;BME280;39910;47.154;27.614;2022-12-16T06:33:20;100699.44;;;5.53;100.00
34738;BME280;39910;47.154;27.614;2022-12-16T06:36:04;100696.09;;;5.70;100.00
34738;BME280;39910;47.154;27.614;2022-12-16T06:38:48;100685.59;;;5.61;100.00
34738;BME280;39910;47.154;27.614;2022-12-16T06:41:33;100706.91;;;5.58;100.00
34738;BME280;39910;47.154;27.614;2022-12-16T06:44:17;100674.91;;;5.72;100.00
34738;BME280;39910;47.154;27.614;2022-12-16T06:47:00;100673.81;;;5.74;100.00
34738;BME280;39910;47.154;27.614;2022-12-16T06:49:44;100661.34;;;5.67;100.00
34738;BME280;39910;47.154;27.614;2022-12-16T06:52:28;100680.75;;;5.66;100.00
34738;BME280;39910;47.154;27.614;2022-12-16T06:55:12;100680.47;;;5.59;100.00
34738;BME280;39910;47.154;27.614;2022-12-16T06:57:57;100676.31;;;5.47;100.00
34738;BME280;39910;47.154;27.614;2022-12-16T07:00:42;100679.06;;;5.36;100.00
34738;BME280;39910;47.154;27.614;2022-12-16T07:03:26;100668.53;;;5.26;100.00
34738;BME280;39910;47.154;27.614;2022-12-16T07:06:10;100658.56;;;5.20;100.00
34738;BME280;39910;47.154;27.614;2022-12-16T07:08:54;100655.53;;;5.24;100.00
34738;BME280;39910;47.154;27.614;2022-12-16T07:11:37;100635.19;;;5.36;100.00
34738;BME280;39910;47.154;27.614;2022-12-16T07:14:21;100637.38;;;5.41;100.00
34738;BME280;39910;47.154;27.614;2022-12-16T07:17:05;100646.78;;;5.43;100.00
34738;BME280;39910;47.154;27.614;2022-12-16T07:19:49;100651.94;;;5.45;100.00
34738;BME280;39910;47.154;27.614;2022-12-16T07:22:33;100648.75;;;5.41;100.00
34738;BME280;39910;47.154;27.614;2022-12-16T07:25:17;100615.38;;;5.42;100.00
34738;BME280;39910;47.154;27.614;2022-12-16T07:28:01;100631.56;;;5.57;100.00
34738;BME280;39910;47.154;27.614;2022-12-16T07:30:45;100645.16;;;5.52;100.00
34738;BME280;39910;47.154;27.614;2022-12-16T07:33:29;100630.88;;;5.54;100.00
34738;BME280;39910;47.154;27.614;2022-12-16T07:36:13;100623.97;;;5.53;100.00
34738;BME280;39910;47.154;27.614;2022-12-16T07:38:57;100634.31;;;5.65;100.00
34738;BME280;39910;47.154;27.614;2022-12-16T07:41:41;100623.25;;;5.61;100.00
34738;BME280;39910;47.154;27.614;2022-12-16T07:44:25;100618.25;;;5.58;100.00
34738;BME280;39910;47.154;27.614;2022-12-16T07:47:09;100607.06;;;5.56;100.00
34738;BME280;39910;47.154;27.614;2022-12-16T07:49:53;100591.69;;;5.61;100.00
34738;BME280;39910;47.154;27.614;2022-12-16T07:52:37;100611.72;;;5.72;100.00
34738;BME280;39910;47.154;27.614;2022-12-16T07:55:21;100621.44;;;5.71;100.00
34738;BME280;39910;47.154;27.614;2022-12-16T07:58:04;100600.66;;;5.88;100.00
34738;BME280;39910;47.154;27.614;2022-12-16T08:00:48;100601.56;;;6.06;100.00
34738;BME280;39910;47.154;27.614;2022-12-16T08:03:32;100612.97;;;5.97;100.00
34738;BME280;39910;47.154;27.614;2022-12-16T08:06:16;100609.19;;;6.09;100.00
34738;BME280;39910;47.154;27.614;2022-12-16T08:09:00;100589.19;;;6.16;100.00
34738;BME280;39910;47.154;27.614;2022-12-16T08:11:44;100588.66;;;6.13;100.00
34738;BME280;39910;47.154;27.614;2022-12-16T08:14:28;100593.72;;;6.33;100.00
34738;BME280;39910;47.154;27.614;2022-12-16T08:17:12;100591.25;;;6.32;100.00
34738;BME280;39910;47.154;27.614;2022-12-16T08:19:56;100588.81;;;6.38;100.00
34738;BME280;39910;47.154;27.614;2022-12-16T08:22:40;100578.72;;;6.06;100.00
34738;BME280;39910;47.154;27.614;2022-12-16T08:25:24;100580.00;;;5.93;100.00
34738;BME280;39910;47.154;27.614;2022-12-16T08:28:08;100578.34;;;5.82;100.00
34738;BME280;39910;47.154;27.614;2022-12-16T08:30:52;100579.59;;;5.88;100.00
34738;BME280;39910;47.154;27.614;2022-12-16T08:33:36;100575.44;;;5.75;100.00
34738;BME280;39910;47.154;27.614;2022-12-16T08:36:20;100584.00;;;5.87;100.00
34738;BME280;39910;47.154;27.614;2022-12-16T08:39:04;100572.63;;;5.87;100.00
34738;BME280;39910;47.154;27.614;2022-12-16T08:41:48;100570.59;;;5.80;100.00
34738;BME280;39910;47.154;27.614;2022-12-16T08:44:32;100556.16;;;5.94;100.00
34738;BME280;39910;47.154;27.614;2022-12-16T08:47:16;100559.75;;;6.03;100.00
34738;BME280;39910;47.154;27.614;2022-12-16T08:49:59;100566.16;;;5.71;100.00
34738;BME280;39910;47.154;27.614;2022-12-16T08:52:43;100557.28;;;5.92;100.00
34738;BME280;39910;47.154;27.614;2022-12-16T08:55:27;100556.97;;;5.95;100.00
34738;BME280;39910;47.154;27.614;2022-12-16T08:58:11;100540.72;;;6.09;100.00
34738;BME280;39910;47.154;27.614;2022-12-16T09:00:55;100558.38;;;6.26;100.00
34738;BME280;39910;47.154;27.614;2022-12-16T09:03:39;100537.59;;;6.23;100.00
34738;BME280;39910;47.154;27.614;2022-12-16T09:06:23;100526.53;;;6.20;100.00
34738;BME280;39910;47.154;27.614;2022-12-16T09:09:08;100522.50;;;6.25;100.00
34738;BME280;39910;47.154;27.614;2022-12-16T09:11:52;100526.53;;;6.20;100.00
34738;BME280;39910;47.154;27.614;2022-12-16T09:14:36;100527.44;;;6.28;100.00
34738;BME280;39910;47.154;27.614;2022-12-16T09:17:20;100526.13;;;6.42;100.00
34738;BME280;39910;47.154;27.614;2022-12-16T09:20:04;100529.78;;;6.31;100.00
34738;BME280;39910;47.154;27.614;2022-12-16T09:22:48;100534.94;;;6.33;100.00
34738;BME280;39910;47.154;27.614;2022-12-16T09:25:32;100531.06;;;6.27;100.00
34738;BME280;39910;47.154;27.614;2022-12-16T09:28:16;100526.38;;;6.21;100.00
34738;BME280;39910;47.154;27.614;2022-12-16T09:31:00;100530.09;;;6.28;100.00
34738;BME280;39910;47.154;27.614;2022-12-16T09:33:44;100499.63;;;6.26;100.00
34738;BME280;39910;47.154;27.614;2022-12-16T09:36:48;100515.25;;;6.27;100.00
34738;BME280;39910;47.154;27.614;2022-12-16T09:39:32;100504.88;;;6.26;100.00
34738;BME280;39910;47.154;27.614;2022-12-16T09:42:46;100524.81;;;6.28;100.00
34738;BME280;39910;47.154;27.614;2022-12-16T09:51:42;100473.78;;;6.29;100.00
34738;BME280;39910;47.154;27.614;2022-12-16T09:54:32;100482.75;;;6.36;100.00
34738;BME280;39910;47.154;27.614;2022-12-16T09:57:18;100458.66;;;6.31;100.00
34738;BME280;39910;47.154;27.614;2022-12-16T10:00:14;100458.38;;;6.34;100.00
34738;BME280;39910;47.154;27.614;2022-12-16T10:03:07;100446.25;;;6.42;100.00
34738;BME280;39910;47.154;27.614;2022-12-16T10:11:57;100436.91;;;6.29;100.00
34738;BME280;39910;47.154;27.614;2022-12-16T10:14:51;100433.75;;;6.44;100.00
34738;BME280;39910;47.154;27.614;2022-12-16T10:17:41;100384.66;;;6.43;100.00
34738;BME280;39910;47.154;27.614;2022-12-16T10:20:39;100398.84;;;6.42;100.00
34738;BME280;39910;47.154;27.614;2022-12-16T10:23:58;100363.81;;;6.49;100.00
34738;BME280;39910;47.154;27.614;2022-12-16T10:29:38;100371.41;;;6.52;100.00
34738;BME280;39910;47.154;27.614;2022-12-16T10:32:30;100349.44;;;6.61;100.00
34738;BME280;39910;47.154;27.614;2022-12-16T10:35:24;100361.69;;;6.71;100.00
34738;BME280;39910;47.154;27.614;2022-12-16T10:38:22;100344.38;;;6.94;100.00
34738;BME280;39910;47.154;27.614;2022-12-16T10:41:10;100353.63;;;6.98;100.00
34738;BME280;39910;47.154;27.614;2022-12-16T10:43:56;100343.78;;;7.08;100.00
34738;BME280;39910;47.154;27.614;2022-12-16T10:46:41;100339.72;;;7.14;100.00
34738;BME280;39910;47.154;27.614;2022-12-16T10:49:25;100330.69;;;7.25;100.00
34738;BME280;39910;47.154;27.614;2022-12-16T10:52:11;100322.88;;;7.15;100.00
34738;BME280;39910;47.154;27.614;2022-12-16T10:55:23;100311.19;;;7.17;100.00
34738;BME280;39910;47.154;27.614;2022-12-16T10:58:22;100323.78;;;7.32;100.00
34738;BME280;39910;47.154;27.614;2022-12-16T11:01:28;100304.50;;;7.39;100.00
34738;BME280;39910;47.154;27.614;2022-12-16T11:04:34;100312.41;;;7.31;100.00
34738;BME280;39910;47.154;27.614;2022-12-16T11:13:22;100275.31;;;7.41;100.00
34738;BME280;39910;47.154;27.614;2022-12-16T11:16:18;100304.72;;;7.54;100.00
34738;BME280;39910;47.154;27.614;2022-12-16T11:19:03;100288.41;;;7.59;100.00
34738;BME280;39910;47.154;27.614;2022-12-16T11:21:48;100297.19;;;7.67;100.00
34738;BME280;39910;47.154;27.614;2022-12-16T11:24:33;100278.03;;;7.65;100.00
34738;BME280;39910;47.154;27.614;2022-12-16T11:33:03;100276.41;;;7.72;100.00
34738;BME280;39910;47.154;27.614;2022-12-16T11:35:51;100276.41;;;7.81;100.00
34738;BME280;39910;47.154;27.614;2022-12-16T11:38:48;100294.09;;;8.04;100.00
34738;BME280;39910;47.154;27.614;2022-12-16T11:41:53;100278.91;;;7.98;100.00
34738;BME280;39910;47.154;27.614;2022-12-16T11:44:53;100276.41;;;7.81;100.00
34738;BME280;39910;47.154;27.614;2022-12-16T11:50:37;100257.13;;;7.88;100.00
34738;BME280;39910;47.154;27.614;2022-12-16T11:56:30;100286.00;;;8.06;100.00
34738;BME280;39910;47.154;27.614;2022-12-16T12:02:21;100278.41;;;8.19;100.00
34738;BME280;39910;47.154;27.614;2022-12-16T12:05:14;100263.72;;;8.00;100.00
34738;BME280;39910;47.154;27.614;2022-12-16T12:08:30;100268.69;;;8.12;100.00
34738;BME280;39910;47.154;27.614;2022-12-16T12:11:30;100255.97;;;8.15;100.00
34738;BME280;39910;47.154;27.614;2022-12-16T12:17:54;100260.41;;;8.07;100.00
34738;BME280;39910;47.154;27.614;2022-12-16T12:20:58;100238.44;;;8.06;100.00
34738;BME280;39910;47.154;27.614;2022-12-16T12:24:24;100225.75;;;8.18;100.00
34738;BME280;39910;47.154;27.614;2022-12-16T12:27:18;100236.81;;;8.05;100.00
34738;BME280;39910;47.154;27.614;2022-12-16T12:30:13;100269.69;;;8.02;100.00
34738;BME280;39910;47.154;27.614;2022-12-16T12:35:52;100236.16;;;8.03;100.00
34738;BME280;39910;47.154;27.614;2022-12-16T12:47:41;100222.28;;;8.25;100.00
34738;BME280;39910;47.154;27.614;2022-12-16T12:50:35;100210.41;;;8.38;100.00
34738;BME280;39910;47.154;27.614;2022-12-16T12:53:29;100242.56;;;8.57;100.00
34738;BME280;39910;47.154;27.614;2022-12-16T13:00:13;100271.91;;;8.87;100.00
34738;BME280;39910;47.154;27.614;2022-12-16T13:02:26;100269.31;;;8.63;100.00
34738;BME280;39910;47.154;27.614;2022-12-16T13:05:13;100262.03;;;8.65;100.00
34738;BME280;39910;47.154;27.614;2022-12-16T13:08:32;100238.63;;;8.45;100.00
34738;BME280;39910;47.154;27.614;2022-12-16T13:11:23;100255.97;;;8.40;100.00
34738;BME280;39910;47.154;27.614;2022-12-16T13:17:20;100260.56;;;8.29;100.00
34738;BME280;39910;47.154;27.614;2022-12-16T13:26:11;100281.41;;;8.16;100.00
34738;BME280;39910;47.154;27.614;2022-12-16T13:29:27;100286.38;;;8.36;100.00
34738;BME280;39910;47.154;27.614;2022-12-16T13:32:23;100255.81;;;8.17;100.00
34738;BME280;39910;47.154;27.614;2022-12-16T13:37:57;100238.47;;;8.39;100.00
34738;BME280;39910;47.154;27.614;2022-12-16T13:40:55;100244.56;;;8.31;100.00
34738;BME280;39910;47.154;27.614;2022-12-16T13:43:47;100251.84;;;8.37;100.00
34738;BME280;39910;47.154;27.614;2022-12-16T13:46:52;100266.53;;;8.56;100.00
34738;BME280;39910;47.154;27.614;2022-12-16T13:55:20;100272.66;;;8.48;100.00
34738;BME280;39910;47.154;27.614;2022-12-16T14:04:32;100306.16;;;8.64;100.00
34738;BME280;39910;47.154;27.614;2022-12-16T14:07:20;100292.47;;;8.61;100.00
34738;BME280;39910;47.154;27.614;2022-12-16T14:10:05;100290.66;;;8.61;100.00
34738;BME280;39910;47.154;27.614;2022-12-16T14:13:17;100287.50;;;8.57;100.00
34738;BME280;39910;47.154;27.614;2022-12-16T14:16:10;100286.00;;;8.71;100.00
34738;BME280;39910;47.154;27.614;2022-12-16T14:25:30;100276.63;;;8.61;100.00
34738;BME280;39910;47.154;27.614;2022-12-16T14:31:20;100260.41;;;8.55;100.00
34738;BME280;39910;47.154;27.614;2022-12-16T14:34:12;100275.44;;;8.63;100.00
34738;BME280;39910;47.154;27.614;2022-12-16T14:36:58;100294.44;;;8.58;100.00
34738;BME280;39910;47.154;27.614;2022-12-16T14:39:41;100297.59;;;8.62;100.00
34738;BME280;39910;47.154;27.614;2022-12-16T14:42:28;100303.06;;;8.61;100.00
34738;BME280;39910;47.154;27.614;2022-12-16T14:45:34;100287.84;;;8.63;100.00
34738;BME280;39910;47.154;27.614;2022-12-16T14:48:31;100272.31;;;8.60;100.00
34738;BME280;39910;47.154;27.614;2022-12-16T14:51:37;100271.16;;;8.62;100.00
34738;BME280;39910;47.154;27.614;2022-12-16T14:57:22;100273.78;;;8.70;100.00
34738;BME280;39910;47.154;27.614;2022-12-16T15:05:40;100285.88;;;8.48;100.00
34738;BME280;39910;47.154;27.614;2022-12-16T15:08:27;100292.81;;;8.49;100.00
34738;BME280;39910;47.154;27.614;2022-12-16T15:11:17;100289.69;;;8.54;100.00
34738;BME280;39910;47.154;27.614;2022-12-16T15:14:03;100263.72;;;8.33;100.00
34738;BME280;39910;47.154;27.614;2022-12-16T15:16:50;100282.25;;;8.41;100.00
34738;BME280;39910;47.154;27.614;2022-12-16T15:19:48;100278.59;;;8.34;100.00
34738;BME280;39910;47.154;27.614;2022-12-16T15:22:34;100295.13;;;8.36;100.00
34738;BME280;39910;47.154;27.614;2022-12-16T15:25:22;100299.25;;;8.55;100.00
34738;BME280;39910;47.154;27.614;2022-12-16T15:28:25;100305.19;;;8.65;100.00
34738;BME280;39910;47.154;27.614;2022-12-16T15:31:30;100302.72;;;8.55;100.00
34738;BME280;39910;47.154;27.614;2022-12-16T15:34:29;100304.19;;;8.58;100.00
34738;BME280;39910;47.154;27.614;2022-12-16T15:37:27;100307.81;;;8.65;100.00
34738;BME280;39910;47.154;27.614;2022-12-16T15:43:22;100304.66;;;8.78;100.00
34738;BME280;39910;47.154;27.614;2022-12-16T15:46:24;100290.78;;;8.76;100.00
34738;BME280;39910;47.154;27.614;2022-12-16T15:49:48;100302.31;;;8.91;100.00
34738;BME280;39910;47.154;27.614;2022-12-16T15:58:28;100303.28;;;9.06;100.00
34738;BME280;39910;47.154;27.614;2022-12-16T16:01:15;100297.03;;;8.91;100.00
34738;BME280;39910;47.154;27.614;2022-12-16T16:03:59;100295.09;;;8.77;100.00
34738;BME280;39910;47.154;27.614;2022-12-16T16:06:49;100304.66;;;8.86;100.00
34738;BME280;39910;47.154;27.614;2022-12-16T16:09:36;100302.84;;;8.78;100.00
34738;BME280;39910;47.154;27.614;2022-12-16T16:12:21;100305.16;;;8.81;100.00